createdAt,value
2023-04-16T00:02:02.061Z,63.97
2023-04-16T00:04:29.419Z,63.93
2023-04-16T00:06:56.393Z,63.85
2023-04-16T00:09:23.306Z,63.63
2023-04-16T00:11:50.210Z,63.54
2023-04-16T00:14:17.122Z,63.53
2023-04-16T00:16:44.092Z,63.47
2023-04-16T00:19:11.259Z,63.79
2023-04-16T00:21:38.338Z,63.62
2023-04-16T00:24:05.287Z,63.71
2023-04-16T00:26:32.188Z,63.69
2023-04-16T00:28:59.150Z,64.08
2023-04-16T00:31:31.045Z,64.00
2023-04-16T00:33:58.770Z,64.11
2023-04-16T00:36:27.374Z,64.17
2023-04-16T00:38:55.457Z,64.11
2023-04-16T00:41:23.129Z,63.84
2023-04-16T00:43:50.799Z,63.85
2023-04-16T00:46:21.263Z,63.79
2023-04-16T00:48:49.385Z,63.46
2023-04-16T00:51:16.940Z,63.23
2023-04-16T00:53:45.986Z,63.44
2023-04-16T00:56:13.727Z,63.53
2023-04-16T00:58:40.831Z,63.56
2023-04-16T01:01:07.868Z,63.67
2023-04-16T01:03:46.423Z,63.51
2023-04-16T01:06:14.823Z,63.15
2023-04-16T01:08:41.744Z,63.61
2023-04-16T01:11:09.708Z,63.41
2023-04-16T01:13:39.438Z,63.21
2023-04-16T01:16:12.729Z,63.43
2023-04-16T01:18:39.805Z,63.71
2023-04-16T01:21:06.878Z,63.93
2023-04-16T01:23:33.806Z,63.99
2023-04-16T01:26:00.853Z,64.35
2023-04-16T01:28:27.802Z,64.30
2023-04-16T01:30:54.866Z,64.65
2023-04-16T01:33:32.118Z,64.82
2023-04-16T01:35:59.149Z,65.18
2023-04-16T01:38:26.168Z,65.05
2023-04-16T01:40:59.618Z,64.96
2023-04-16T01:43:26.601Z,65.30
2023-04-16T01:46:18.893Z,65.04
2023-04-16T01:48:46.214Z,64.85
2023-04-16T01:51:13.346Z,64.89
2023-04-16T01:53:40.480Z,64.99
2023-04-16T01:56:07.484Z,64.71
2023-04-16T01:58:35.868Z,64.52
2023-04-16T02:01:02.882Z,64.45
2023-04-16T02:03:31.356Z,64.51
2023-04-16T02:05:58.531Z,64.76
2023-04-16T02:08:25.556Z,64.81
2023-04-16T02:10:52.562Z,64.63
2023-04-16T02:13:19.551Z,64.60
2023-04-16T02:15:51.349Z,64.33
2023-04-16T02:18:25.921Z,64.15
2023-04-16T02:20:53.010Z,64.41
2023-04-16T02:23:20.021Z,64.33
2023-04-16T02:25:48.169Z,63.90
2023-04-16T02:28:17.110Z,63.96
2023-04-16T02:30:46.014Z,64.01
2023-04-16T02:33:15.253Z,63.95
2023-04-16T02:35:52.489Z,63.77
2023-04-16T02:38:19.895Z,63.77
2023-04-16T02:40:46.777Z,63.48
2023-04-16T02:43:13.732Z,63.92
2023-04-16T02:45:40.792Z,64.02
2023-04-16T02:48:09.079Z,64.14
2023-04-16T02:50:36.173Z,64.08
2023-04-16T02:53:04.290Z,64.58
2023-04-16T02:55:31.241Z,64.44
2023-04-16T02:57:58.200Z,64.27
2023-04-16T03:00:25.619Z,64.47
2023-04-16T03:02:52.708Z,64.26
2023-04-16T03:05:19.874Z,64.41
2023-04-16T03:07:46.958Z,64.27
2023-04-16T03:10:15.406Z,64.52
2023-04-16T03:12:42.319Z,64.70
2023-04-16T03:15:09.750Z,64.32
2023-04-16T03:17:36.976Z,64.19
2023-04-16T03:20:05.019Z,64.16
2023-04-16T03:22:31.928Z,63.76
2023-04-16T03:24:58.814Z,63.62
2023-04-16T03:27:25.762Z,63.44
2023-04-16T03:29:53.316Z,63.56
2023-04-16T03:32:20.232Z,63.09
2023-04-16T03:34:47.196Z,63.17
2023-04-16T03:37:14.188Z,62.94
2023-04-16T03:39:41.513Z,63.09
2023-04-16T03:42:10.526Z,63.39
2023-04-16T03:44:37.514Z,63.32
2023-04-16T03:47:04.419Z,63.50
2023-04-16T03:49:31.334Z,63.53
2023-04-16T03:51:59.209Z,63.25
2023-04-16T03:54:26.844Z,63.30
2023-04-16T03:57:05.666Z,63.86
2023-04-16T03:59:33.588Z,64.21
2023-04-16T04:02:00.883Z,63.82
2023-04-16T04:04:28.074Z,64.38
2023-04-16T04:06:55.047Z,64.12
2023-04-16T04:09:23.174Z,64.48
2023-04-16T04:11:50.829Z,64.34
2023-04-16T04:14:17.979Z,64.59
2023-04-16T04:16:45.056Z,64.97
2023-04-16T04:19:12.489Z,65.09
2023-04-16T04:21:39.600Z,65.20
2023-04-16T04:24:06.684Z,65.58
2023-04-16T04:26:34.437Z,65.94
2023-04-16T04:29:01.351Z,65.94
2023-04-16T04:31:28.378Z,65.72
2023-04-16T04:33:56.164Z,65.72
2023-04-16T04:36:23.283Z,65.81
2023-04-16T04:38:50.461Z,65.84
2023-04-16T04:41:17.583Z,65.78
2023-04-16T04:43:44.506Z,65.91
2023-04-16T04:46:12.347Z,65.64
2023-04-16T04:48:40.956Z,65.78
2023-04-16T04:51:07.960Z,65.53
2023-04-16T04:53:35.099Z,65.96
2023-04-16T04:56:11.665Z,65.65
2023-04-16T04:58:40.617Z,65.28
2023-04-16T05:01:07.548Z,65.54
2023-04-16T05:03:34.659Z,65.57
2023-04-16T05:06:01.630Z,65.25
2023-04-16T05:08:28.526Z,65.50
2023-04-16T05:10:55.451Z,65.18
2023-04-16T05:13:22.389Z,65.08
2023-04-16T05:15:49.263Z,65.01
2023-04-16T05:18:16.330Z,65.29
2023-04-16T05:20:43.228Z,65.10
2023-04-16T05:23:10.152Z,65.02
2023-04-16T05:25:37.100Z,64.65
2023-04-16T05:28:04.062Z,64.73
2023-04-16T05:30:31.026Z,64.60
2023-04-16T05:32:58.034Z,64.88
2023-04-16T05:35:24.966Z,64.74
2023-04-16T05:37:51.854Z,64.46
2023-04-16T05:40:18.833Z,64.71
2023-04-16T05:42:45.744Z,64.67
2023-04-16T05:45:12.653Z,64.79
2023-04-16T05:47:39.611Z,64.55
2023-04-16T05:50:07.157Z,64.25
2023-04-16T05:52:34.049Z,64.65
2023-04-16T05:55:01.897Z,64.74
2023-04-16T05:57:29.796Z,64.76
2023-04-16T05:59:56.678Z,64.56
2023-04-16T06:02:23.736Z,64.55
2023-04-16T06:04:50.789Z,64.42
2023-04-16T06:07:17.708Z,64.71
2023-04-16T06:09:45.663Z,64.23
2023-04-16T06:12:12.663Z,64.72
2023-04-16T06:14:39.543Z,64.36
2023-04-16T06:17:06.458Z,64.33
2023-04-16T06:19:33.339Z,64.26
2023-04-16T06:22:00.305Z,64.57
2023-04-16T06:24:27.186Z,64.42
2023-04-16T06:26:54.657Z,64.58
2023-04-16T06:29:24.142Z,64.35
2023-04-16T06:31:57.620Z,64.17
2023-04-16T06:34:24.582Z,64.45
2023-04-16T06:36:52.357Z,64.19
2023-04-16T06:39:21.744Z,64.29
2023-04-16T06:41:49.339Z,64.54
2023-04-16T06:44:16.238Z,64.36
2023-04-16T06:46:43.252Z,64.58
2023-04-16T06:49:10.339Z,64.62
2023-04-16T06:51:37.988Z,64.71
2023-04-16T06:54:04.967Z,64.61
2023-04-16T06:56:32.322Z,64.60
2023-04-16T06:59:00.939Z,64.62
2023-04-16T07:01:28.555Z,64.78
2023-04-16T07:03:55.874Z,64.86
2023-04-16T07:06:22.902Z,64.77
2023-04-16T07:08:49.846Z,64.18
2023-04-16T07:11:17.153Z,64.35
2023-04-16T07:13:44.108Z,63.98
2023-04-16T07:16:11.023Z,63.91
2023-04-16T07:18:38.027Z,64.23
2023-04-16T07:21:05.034Z,63.62
2023-04-16T07:23:31.949Z,63.87
2023-04-16T07:25:58.833Z,63.64
2023-04-16T07:28:26.023Z,63.59
2023-04-16T07:30:52.933Z,63.66
2023-04-16T07:33:19.831Z,63.53
2023-04-16T07:35:47.311Z,64.16
2023-04-16T07:38:14.845Z,63.54
2023-04-16T07:40:41.717Z,63.42
2023-04-16T07:43:09.035Z,63.12
2023-04-16T07:45:36.001Z,63.20
2023-04-16T07:48:02.971Z,63.28
2023-04-16T07:50:29.880Z,63.34
2023-04-16T07:52:56.778Z,63.20
2023-04-16T07:55:23.743Z,62.60
2023-04-16T07:57:50.713Z,62.74
2023-04-16T08:00:17.826Z,62.45
2023-04-16T08:02:45.012Z,62.79
2023-04-16T08:05:12.856Z,63.03
2023-04-16T08:07:39.756Z,63.10
2023-04-16T08:10:07.436Z,63.07
2023-04-16T08:12:34.951Z,63.06
2023-04-16T08:15:01.825Z,62.64
2023-04-16T08:17:29.492Z,62.49
2023-04-16T08:19:56.450Z,62.13
2023-04-16T08:22:23.355Z,61.28
2023-04-16T08:24:50.251Z,61.17
2023-04-16T08:27:19.420Z,61.41
2023-04-16T08:29:47.575Z,60.53
2023-04-16T08:32:14.469Z,60.66
2023-04-16T08:34:42.209Z,60.14
2023-04-16T08:37:09.600Z,60.28
2023-04-16T08:39:36.682Z,60.52
2023-04-16T08:42:06.352Z,60.35
2023-04-16T08:44:37.902Z,60.63
2023-04-16T08:47:09.529Z,60.56
2023-04-16T08:49:43.538Z,59.87
2023-04-16T08:52:19.309Z,59.20
2023-04-16T08:55:07.174Z,59.04
2023-04-16T08:57:51.086Z,59.06
2023-04-16T09:00:19.205Z,59.46
2023-04-16T09:02:46.538Z,59.07
2023-04-16T09:05:20.691Z,59.25
2023-04-16T09:07:48.668Z,58.56
2023-04-16T09:10:16.552Z,58.65
2023-04-16T09:12:45.237Z,58.09
2023-04-16T09:15:13.912Z,57.95
2023-04-16T09:17:40.914Z,57.66
2023-04-16T09:20:09.373Z,57.60
2023-04-16T09:22:37.054Z,57.29
2023-04-16T09:25:04.276Z,57.81
2023-04-16T09:27:31.989Z,58.03
2023-04-16T09:29:59.285Z,56.74
2023-04-16T09:32:28.427Z,55.99
2023-04-16T09:35:02.379Z,55.67
2023-04-16T09:37:30.906Z,55.78
2023-04-16T09:40:03.931Z,55.61
2023-04-16T09:42:36.885Z,55.43
2023-04-16T09:45:06.026Z,56.04
2023-04-16T09:47:42.930Z,56.37
2023-04-16T09:50:17.775Z,56.07
2023-04-16T09:52:51.573Z,56.25
2023-04-16T09:55:23.978Z,55.32
2023-04-16T09:58:02.196Z,55.43
2023-04-16T10:00:31.347Z,53.76
2023-04-16T10:03:07.986Z,53.83
2023-04-16T10:05:35.290Z,52.86
2023-04-16T10:08:02.454Z,52.92
2023-04-16T10:10:30.205Z,52.07
2023-04-16T10:12:57.965Z,51.62
2023-04-16T10:15:25.316Z,51.73
2023-04-16T10:17:53.888Z,51.58
2023-04-16T10:20:21.039Z,51.28
2023-04-16T10:22:48.219Z,50.88
2023-04-16T10:25:15.533Z,51.18
2023-04-16T10:27:42.477Z,50.86
2023-04-16T10:30:11.265Z,50.45
2023-04-16T10:32:38.962Z,50.10
2023-04-16T10:35:06.860Z,50.45
2023-04-16T10:37:34.574Z,50.89
2023-04-16T10:40:01.716Z,50.90
2023-04-16T10:42:28.683Z,49.68
2023-04-16T10:44:59.525Z,49.72
2023-04-16T10:47:26.719Z,50.06
2023-04-16T10:49:53.686Z,49.28
2023-04-16T10:52:22.440Z,49.67
2023-04-16T10:54:49.990Z,49.43
2023-04-16T10:57:19.714Z,49.28
2023-04-16T10:59:48.717Z,48.99
2023-04-16T11:02:19.622Z,49.40
2023-04-16T11:04:49.215Z,49.65
2023-04-16T11:07:22.622Z,49.20
2023-04-16T11:10:06.762Z,49.54
2023-04-16T11:12:42.122Z,48.72
2023-04-16T11:15:11.930Z,48.74
2023-04-16T11:17:47.879Z,49.04
2023-04-16T11:20:24.262Z,49.09
2023-04-16T11:22:56.850Z,49.38
2023-04-16T11:25:26.144Z,49.58
2023-04-16T11:27:53.651Z,49.63
2023-04-16T11:30:30.620Z,49.07
2023-04-16T11:32:57.561Z,49.25
2023-04-16T11:35:24.562Z,49.43
2023-04-16T11:37:57.155Z,49.00
2023-04-16T11:40:27.066Z,49.51
2023-04-16T11:42:53.988Z,49.49
2023-04-16T11:45:21.104Z,49.23
2023-04-16T11:47:55.144Z,48.56
2023-04-16T11:50:27.784Z,48.63
2023-04-16T11:53:05.444Z,49.08
2023-04-16T11:55:32.386Z,49.33
2023-04-16T11:58:12.934Z,48.32
2023-04-16T12:00:41.594Z,48.69
2023-04-16T12:03:08.745Z,48.84
2023-04-16T12:05:39.345Z,48.48
2023-04-16T12:08:09.028Z,48.24
2023-04-16T12:10:52.472Z,48.87
2023-04-16T12:13:19.728Z,48.49
2023-04-16T12:15:52.073Z,48.99
2023-04-16T12:18:26.742Z,48.42
2023-04-16T12:20:54.067Z,48.46
2023-04-16T12:23:30.011Z,48.99
2023-04-16T12:26:02.551Z,49.22
2023-04-16T12:28:38.414Z,48.95
2023-04-16T12:31:06.322Z,49.02
2023-04-16T12:33:33.410Z,48.64
2023-04-16T12:36:01.556Z,48.09
2023-04-16T12:38:29.070Z,48.22
2023-04-16T12:40:57.558Z,47.48
2023-04-16T12:43:25.117Z,47.72
2023-04-16T12:45:52.148Z,47.81
2023-04-16T12:48:19.071Z,48.04
2023-04-16T12:50:46.144Z,47.94
2023-04-16T12:53:13.044Z,48.03
2023-04-16T12:55:39.951Z,48.29
2023-04-16T12:58:06.875Z,47.65
2023-04-16T13:00:33.785Z,47.99
2023-04-16T13:03:00.966Z,47.46
2023-04-16T13:05:28.017Z,47.16
2023-04-16T13:07:55.031Z,47.45
2023-04-16T13:10:23.450Z,47.79
2023-04-16T13:12:50.345Z,47.29
2023-04-16T13:15:17.277Z,47.78
2023-04-16T13:17:44.247Z,47.47
2023-04-16T13:20:11.344Z,47.30
2023-04-16T13:22:39.274Z,47.36
2023-04-16T13:25:07.005Z,47.40
2023-04-16T13:27:33.891Z,47.81
2023-04-16T13:30:00.915Z,47.34
2023-04-16T13:32:27.888Z,47.56
2023-04-16T13:34:55.021Z,47.78
2023-04-16T13:37:21.904Z,48.06
2023-04-16T13:39:48.796Z,48.30
2023-04-16T13:42:15.697Z,47.90
2023-04-16T13:44:42.706Z,48.08
2023-04-16T13:47:09.646Z,48.54
2023-04-16T13:49:36.663Z,48.92
2023-04-16T13:52:03.960Z,48.84
2023-04-16T13:54:30.934Z,48.77
2023-04-16T13:56:57.830Z,48.56
2023-04-16T13:59:24.754Z,48.97
2023-04-16T14:01:51.724Z,48.70
2023-04-16T14:04:18.801Z,48.66
2023-04-16T14:06:45.952Z,48.57
2023-04-16T14:09:13.016Z,48.36
2023-04-16T14:11:40.262Z,47.98
2023-04-16T14:14:07.157Z,48.18
2023-04-16T14:16:35.813Z,47.87
2023-04-16T14:19:02.747Z,47.83
2023-04-16T14:21:31.247Z,47.81
2023-04-16T14:23:58.160Z,48.07
2023-04-16T14:26:25.106Z,48.46
2023-04-16T14:28:52.098Z,48.21
2023-04-16T14:31:20.004Z,48.41
2023-04-16T14:33:47.160Z,48.63
2023-04-16T14:36:14.265Z,49.05
2023-04-16T14:38:43.173Z,48.83
2023-04-16T14:41:11.948Z,48.70
2023-04-16T14:43:41.194Z,48.82
2023-04-16T14:46:08.281Z,48.88
2023-04-16T14:48:35.222Z,49.18
2023-04-16T14:51:02.510Z,48.53
2023-04-16T14:53:29.432Z,48.62
2023-04-16T14:55:58.938Z,47.64
2023-04-16T14:58:26.541Z,47.35
2023-04-16T15:00:53.624Z,47.61
2023-04-16T15:03:21.037Z,47.95
2023-04-16T15:05:54.770Z,48.26
2023-04-16T15:08:22.777Z,47.19
2023-04-16T15:10:50.441Z,47.25
2023-04-16T15:13:17.714Z,47.88
2023-04-16T15:15:44.848Z,47.39
2023-04-16T15:18:11.747Z,47.15
2023-04-16T15:20:38.693Z,47.31
2023-04-16T15:23:05.858Z,47.83
2023-04-16T15:25:32.790Z,48.23
2023-04-16T15:27:59.654Z,48.25
2023-04-16T15:30:26.558Z,47.94
2023-04-16T15:32:55.018Z,47.40
2023-04-16T15:35:22.131Z,47.04
2023-04-16T15:37:49.004Z,47.38
2023-04-16T15:40:18.713Z,47.79
2023-04-16T15:42:45.651Z,48.41
2023-04-16T15:45:12.551Z,49.00
2023-04-16T15:47:41.696Z,49.17
2023-04-16T15:50:09.075Z,48.76
2023-04-16T15:52:36.417Z,48.47
2023-04-16T15:55:04.385Z,48.65
2023-04-16T15:57:31.496Z,48.50
2023-04-16T16:02:30.522Z,48.94
2023-04-16T16:04:57.615Z,49.28
2023-04-16T16:07:25.186Z,49.31
2023-04-16T16:09:53.086Z,49.38
2023-04-16T16:12:20.029Z,49.38
2023-04-16T16:14:47.740Z,48.85
2023-04-16T16:17:14.852Z,48.68
2023-04-16T16:19:41.750Z,49.33
2023-04-16T16:22:10.126Z,49.52
2023-04-16T16:24:37.038Z,49.47
2023-04-16T16:27:04.104Z,49.56
2023-04-16T16:29:31.274Z,49.35
2023-04-16T16:31:58.280Z,49.40
2023-04-16T16:34:26.172Z,49.05
2023-04-16T16:36:53.076Z,49.28
2023-04-16T16:39:24.274Z,49.44
2023-04-16T16:41:54.175Z,49.61
2023-04-16T16:44:21.721Z,49.94
2023-04-16T16:46:48.870Z,50.03
2023-04-16T16:49:16.870Z,50.27
2023-04-16T16:51:49.986Z,50.42
2023-04-16T16:54:16.907Z,50.51
2023-04-16T16:56:43.858Z,50.61
2023-04-16T16:59:10.928Z,50.58
2023-04-16T17:01:38.039Z,50.73
2023-04-16T17:04:05.343Z,51.30
2023-04-16T17:06:33.215Z,51.32
2023-04-16T17:09:00.932Z,51.47
2023-04-16T17:11:29.246Z,50.50
2023-04-16T17:13:56.170Z,50.15
2023-04-16T17:16:23.912Z,49.93
2023-04-16T17:18:50.848Z,49.67
2023-04-16T17:21:17.761Z,49.68
2023-04-16T17:23:44.812Z,49.85
2023-04-16T17:26:11.725Z,50.11
2023-04-16T17:28:38.650Z,50.54
2023-04-16T17:31:08.322Z,50.68
2023-04-16T17:33:35.488Z,50.71
2023-04-16T17:36:02.438Z,50.90
2023-04-16T17:38:29.367Z,51.01
2023-04-16T17:40:57.043Z,50.96
2023-04-16T17:43:24.206Z,51.11
2023-04-16T17:45:51.179Z,51.38
2023-04-16T17:48:18.168Z,51.44
2023-04-16T17:50:45.062Z,51.79
2023-04-16T17:53:12.229Z,51.92
2023-04-16T17:55:39.135Z,52.29
2023-04-16T17:58:06.196Z,52.29
2023-04-16T18:00:33.399Z,52.39
2023-04-16T18:03:00.472Z,52.36
2023-04-16T18:05:27.645Z,52.38
2023-04-16T18:07:55.610Z,52.41
2023-04-16T18:10:22.543Z,52.26
2023-04-16T18:12:49.512Z,52.52
2023-04-16T18:15:16.639Z,52.77
2023-04-16T18:17:43.601Z,52.57
2023-04-16T18:20:12.543Z,52.75
2023-04-16T18:22:39.585Z,53.32
2023-04-16T18:25:07.097Z,53.09
2023-04-16T18:27:34.380Z,53.47
2023-04-16T18:30:01.359Z,53.55
2023-04-16T18:32:31.029Z,54.12
2023-04-16T18:34:58.264Z,54.01
2023-04-16T18:37:25.196Z,53.91
2023-04-16T18:39:52.115Z,54.20
2023-04-16T18:42:19.005Z,54.01
2023-04-16T18:44:52.791Z,53.98
2023-04-16T18:47:20.027Z,53.60
2023-04-16T18:49:46.931Z,53.80
2023-04-16T18:52:13.805Z,53.31
2023-04-16T18:54:43.604Z,53.54
2023-04-16T18:57:10.579Z,53.32
2023-04-16T18:59:37.491Z,53.50
2023-04-16T19:02:04.492Z,53.53
2023-04-16T19:04:31.524Z,53.40
2023-04-16T19:06:58.484Z,53.38
2023-04-16T19:09:26.423Z,53.36
2023-04-16T19:11:53.295Z,53.36
2023-04-16T19:14:20.606Z,53.56
2023-04-16T19:16:47.584Z,53.44
2023-04-16T19:19:14.491Z,53.74
2023-04-16T19:21:41.366Z,53.72
2023-04-16T19:24:08.309Z,53.98
2023-04-16T19:26:35.229Z,54.40
2023-04-16T19:29:02.166Z,55.03
2023-04-16T19:31:29.639Z,54.84
2023-04-16T19:33:56.617Z,55.24
2023-04-16T19:36:23.544Z,55.38
2023-04-16T19:38:50.548Z,55.73
2023-04-16T19:41:17.602Z,55.86
2023-04-16T19:43:44.605Z,56.04
2023-04-16T19:46:11.580Z,56.10
2023-04-16T19:48:38.681Z,56.09
2023-04-16T19:51:05.747Z,56.34
2023-04-16T19:53:34.126Z,56.10
2023-04-16T19:56:01.065Z,56.13
2023-04-16T19:58:28.020Z,56.14
2023-04-16T20:00:55.719Z,55.97
2023-04-16T20:03:22.734Z,56.43
2023-04-16T20:05:50.067Z,56.18
2023-04-16T20:08:16.978Z,56.45
2023-04-16T20:10:43.903Z,56.33
2023-04-16T20:13:12.088Z,56.24
2023-04-16T20:15:39.037Z,56.23
2023-04-16T20:18:08.507Z,55.60
2023-04-16T20:20:37.812Z,55.49
2023-04-16T20:23:04.948Z,55.61
2023-04-16T20:25:31.850Z,55.55
2023-04-16T20:27:58.736Z,55.54
2023-04-16T20:30:29.387Z,55.94
2023-04-16T20:32:56.761Z,56.25
2023-04-16T20:35:23.704Z,56.19
2023-04-16T20:37:50.569Z,56.64
2023-04-16T20:40:17.529Z,57.07
2023-04-16T20:42:46.300Z,57.43
2023-04-16T20:45:13.494Z,57.22
2023-04-16T20:47:40.491Z,57.54
2023-04-16T20:50:08.177Z,57.38
2023-04-16T20:52:35.065Z,57.39
2023-04-16T20:55:01.943Z,57.58
2023-04-16T20:57:29.756Z,57.75
2023-04-16T20:59:56.955Z,58.03
2023-04-16T21:02:24.369Z,58.17
2023-04-16T21:04:51.734Z,58.54
2023-04-16T21:07:18.751Z,58.68
2023-04-16T21:09:45.627Z,58.34
2023-04-16T21:12:12.477Z,58.58
2023-04-16T21:14:39.347Z,58.32
2023-04-16T21:17:06.229Z,58.64
2023-04-16T21:19:33.107Z,58.86
2023-04-16T21:21:59.993Z,58.53
2023-04-16T21:24:26.860Z,58.89
2023-04-16T21:26:53.717Z,59.22
2023-04-16T21:29:20.669Z,59.21
2023-04-16T21:31:47.752Z,58.84
2023-04-16T21:34:14.715Z,59.38
2023-04-16T21:36:41.572Z,59.48
2023-04-16T21:39:08.580Z,59.75
2023-04-16T21:41:35.461Z,59.91
2023-04-16T21:44:02.426Z,60.05
2023-04-16T21:46:29.596Z,60.35
2023-04-16T21:48:56.524Z,60.35
2023-04-16T21:51:29.192Z,60.25
2023-04-16T21:53:57.027Z,60.67
2023-04-16T21:56:24.940Z,60.68
2023-04-16T21:58:51.792Z,60.54
2023-04-16T22:01:18.713Z,60.52
2023-04-16T22:03:50.526Z,60.37
2023-04-16T22:06:18.303Z,60.43
2023-04-16T22:08:45.212Z,60.94
2023-04-16T22:11:12.174Z,61.00
2023-04-16T22:13:41.955Z,60.73
2023-04-16T22:16:10.958Z,60.80
2023-04-16T22:18:38.737Z,60.73
2023-04-16T22:21:05.692Z,60.61
2023-04-16T22:23:32.595Z,60.56
2023-04-16T22:25:59.453Z,60.69
2023-04-16T22:28:26.377Z,60.44
2023-04-16T22:30:53.291Z,60.14
2023-04-16T22:33:20.287Z,60.04
2023-04-16T22:35:47.172Z,59.66
2023-04-16T22:38:14.195Z,59.53
2023-04-16T22:40:41.091Z,59.63
2023-04-16T22:43:08.003Z,59.32
2023-04-16T22:45:35.689Z,59.27
2023-04-16T22:48:02.826Z,58.98
2023-04-16T22:50:31.299Z,59.23
2023-04-16T22:52:58.563Z,59.02
2023-04-16T22:55:25.608Z,58.96
2023-04-16T22:57:52.503Z,58.89
2023-04-16T23:00:19.463Z,58.88
2023-04-16T23:02:46.502Z,59.02
2023-04-16T23:05:13.486Z,58.67
2023-04-16T23:07:40.481Z,58.61
2023-04-16T23:10:08.666Z,58.59
2023-04-16T23:12:37.448Z,58.59
2023-04-16T23:15:06.620Z,58.71
2023-04-16T23:17:35.024Z,58.48
2023-04-16T23:20:02.974Z,58.59
2023-04-16T23:22:29.877Z,58.67
2023-04-16T23:24:56.854Z,58.54
2023-04-16T23:27:23.807Z,58.66
2023-04-16T23:29:50.696Z,58.67
2023-04-16T23:32:17.656Z,58.80
2023-04-16T23:34:44.570Z,58.58
2023-04-16T23:37:11.615Z,58.72
2023-04-16T23:39:38.548Z,58.80
2023-04-16T23:42:05.468Z,59.28
2023-04-16T23:44:32.396Z,59.05
2023-04-16T23:46:59.551Z,59.20
2023-04-16T23:49:26.516Z,59.17
2023-04-16T23:51:53.451Z,59.05
2023-04-16T23:54:21.382Z,59.28
2023-04-16T23:56:48.485Z,58.80
2023-04-16T23:59:16.682Z,58.64
